createdAt,value
2018-09-05T00:00:22.597Z,93.00
2018-09-05T00:02:50.966Z,93.00
2018-09-05T00:05:19.268Z,93.00
2018-09-05T00:07:47.537Z,92.90
2018-09-05T00:10:15.825Z,92.80
2018-09-05T00:12:44.127Z,92.90
2018-09-05T00:15:12.402Z,92.90
2018-09-05T00:17:40.678Z,92.90
2018-09-05T00:20:08.949Z,93.00
2018-09-05T00:22:37.241Z,92.90
2018-09-05T00:25:05.718Z,93.00
2018-09-05T00:27:33.969Z,93.10
2018-09-05T00:30:02.254Z,93.10
2018-09-05T00:32:30.557Z,93.10
2018-09-05T00:34:58.889Z,93.40
2018-09-05T00:37:27.252Z,93.10
2018-09-05T00:39:55.589Z,93.10
2018-09-05T00:42:23.913Z,93.00
2018-09-05T00:44:52.329Z,93.00
2018-09-05T00:47:20.821Z,93.00
2018-09-05T00:49:49.293Z,93.30
2018-09-05T00:52:18.128Z,93.20
2018-09-05T00:54:46.472Z,93.20
2018-09-05T00:57:14.758Z,93.30
2018-09-05T00:59:43.030Z,93.30
2018-09-05T01:02:11.365Z,93.40
2018-09-05T01:04:39.640Z,93.40
2018-09-05T01:07:19.473Z,93.40
2018-09-05T01:09:47.990Z,93.40
2018-09-05T01:12:16.737Z,93.40
2018-09-05T01:14:44.986Z,93.40
2018-09-05T01:17:13.545Z,93.50
2018-09-05T01:19:41.889Z,93.50
2018-09-05T01:22:10.357Z,93.60
2018-09-05T01:24:38.954Z,93.60
2018-09-05T01:27:08.629Z,93.60
2018-09-05T01:29:38.113Z,93.60
2018-09-05T01:32:07.358Z,93.60
2018-09-05T01:34:35.710Z,93.70
2018-09-05T01:37:04.272Z,93.70
2018-09-05T01:39:32.524Z,93.80
2018-09-05T01:42:00.848Z,93.90
2018-09-05T01:44:29.105Z,93.90
2018-09-05T01:46:57.373Z,93.90
2018-09-05T01:49:25.670Z,93.90
2018-09-05T01:51:57.970Z,93.90
2018-09-05T01:54:26.277Z,93.80
2018-09-05T01:56:55.327Z,93.90
2018-09-05T01:59:24.294Z,93.90
2018-09-05T02:01:52.611Z,93.90
2018-09-05T02:04:21.107Z,93.90
2018-09-05T02:06:49.370Z,93.90
2018-09-05T02:09:17.674Z,93.90
2018-09-05T02:11:45.964Z,93.90
2018-09-05T02:14:20.518Z,93.90
2018-09-05T02:16:48.782Z,94.00
2018-09-05T02:19:17.057Z,94.00
2018-09-05T02:21:45.365Z,94.10
2018-09-05T02:24:13.582Z,94.20
2018-09-05T02:26:41.859Z,94.30
2018-09-05T02:29:10.151Z,94.40
2018-09-05T02:31:38.421Z,94.50
2018-09-05T02:34:06.726Z,94.50
2018-09-05T02:36:34.985Z,94.60
2018-09-05T02:39:03.454Z,94.60
2018-09-05T02:41:31.730Z,94.60
2018-09-05T02:44:05.453Z,94.60
2018-09-05T02:46:33.713Z,94.70
2018-09-05T02:49:02.000Z,94.70
2018-09-05T02:51:30.331Z,94.70
2018-09-05T02:53:58.588Z,94.70
2018-09-05T02:56:26.897Z,94.70
2018-09-05T02:58:55.169Z,94.80
2018-09-05T03:01:23.437Z,94.80
2018-09-05T03:03:51.789Z,94.80
2018-09-05T03:06:20.097Z,94.90
2018-09-05T03:08:48.386Z,94.90
2018-09-05T03:11:16.714Z,94.90
2018-09-05T03:13:44.968Z,95.00
2018-09-05T03:16:13.265Z,95.00
2018-09-05T03:18:41.524Z,95.00
2018-09-05T03:21:09.816Z,95.00
2018-09-05T03:23:38.194Z,95.00
2018-09-05T03:26:06.405Z,95.00
2018-09-05T03:28:34.707Z,95.10
2018-09-05T03:31:02.983Z,95.10
2018-09-05T03:33:31.294Z,95.10
2018-09-05T03:35:59.742Z,95.10
2018-09-05T03:38:28.030Z,95.10
2018-09-05T03:40:56.498Z,95.10
2018-09-05T03:43:24.744Z,95.10
2018-09-05T03:45:53.021Z,95.10
2018-09-05T03:48:21.557Z,95.10
2018-09-05T03:50:54.017Z,95.10
2018-09-05T03:53:22.332Z,95.20
2018-09-05T03:55:50.702Z,95.20
2018-09-05T03:58:19.003Z,95.20
2018-09-05T04:00:47.242Z,95.30
2018-09-05T04:03:15.538Z,95.30
2018-09-05T04:05:43.785Z,95.40
2018-09-05T04:08:12.072Z,95.40
2018-09-05T04:10:40.457Z,95.40
2018-09-05T04:13:08.744Z,95.40
2018-09-05T04:15:37.078Z,95.40
2018-09-05T04:18:05.463Z,95.40
2018-09-05T04:20:33.773Z,95.50
2018-09-05T04:23:02.097Z,95.50
2018-09-05T04:25:30.645Z,95.50
2018-09-05T04:27:58.906Z,95.60
2018-09-05T04:30:27.164Z,95.70
2018-09-05T04:32:55.425Z,95.70
2018-09-05T04:35:23.731Z,95.70
2018-09-05T04:37:52.125Z,95.80
2018-09-05T04:40:20.430Z,95.80
2018-09-05T04:42:48.712Z,95.90
2018-09-05T04:45:17.008Z,95.90
2018-09-05T04:47:45.267Z,96.00
2018-09-05T04:50:13.577Z,96.00
2018-09-05T04:52:41.913Z,96.10
2018-09-05T04:55:10.228Z,96.00
2018-09-05T04:57:38.473Z,96.10
2018-09-05T05:00:07.360Z,96.10
2018-09-05T05:02:35.678Z,96.20
2018-09-05T05:05:03.981Z,96.30
2018-09-05T05:07:32.249Z,96.40
2018-09-05T05:10:00.528Z,96.40
2018-09-05T05:12:28.812Z,96.40
2018-09-05T05:14:57.113Z,96.50
2018-09-05T05:17:25.389Z,96.60
2018-09-05T05:19:53.629Z,96.70
2018-09-05T05:22:21.906Z,96.70
2018-09-05T05:24:50.278Z,96.90
2018-09-05T05:27:18.582Z,97.00
2018-09-05T05:29:46.944Z,97.00
2018-09-05T05:32:15.222Z,97.10
2018-09-05T05:34:43.522Z,97.20
2018-09-05T05:37:11.773Z,97.20
2018-09-05T05:39:40.029Z,97.30
2018-09-05T05:42:08.317Z,97.30
2018-09-05T05:44:36.770Z,97.70
2018-09-05T05:47:05.092Z,97.40
2018-09-05T05:49:33.361Z,97.40
2018-09-05T05:52:01.624Z,97.40
2018-09-05T05:54:29.909Z,97.40
2018-09-05T05:56:58.145Z,97.50
2018-09-05T05:59:26.565Z,97.60
2018-09-05T06:01:54.849Z,97.60
2018-09-05T06:04:23.133Z,97.60
2018-09-05T06:06:51.429Z,97.60
2018-09-05T06:09:19.668Z,97.60
2018-09-05T06:11:48.032Z,97.70
2018-09-05T06:14:16.561Z,97.70
2018-09-05T06:16:44.798Z,97.60
2018-09-05T06:19:13.085Z,97.60
2018-09-05T06:21:41.360Z,97.60
2018-09-05T06:24:09.684Z,97.70
2018-09-05T06:26:37.928Z,97.60
2018-09-05T06:29:06.249Z,97.50
2018-09-05T06:31:35.067Z,97.50
2018-09-05T06:34:03.404Z,97.50
2018-09-05T06:36:31.636Z,97.40
2018-09-05T06:39:00.029Z,97.50
2018-09-05T06:41:28.269Z,97.50
2018-09-05T06:43:56.519Z,97.40
2018-09-05T06:46:24.757Z,97.40
2018-09-05T06:48:56.015Z,97.40
2018-09-05T06:51:24.291Z,97.40
2018-09-05T06:53:52.832Z,97.30
2018-09-05T06:56:21.149Z,97.20
2018-09-05T06:58:49.434Z,97.20
2018-09-05T07:01:17.792Z,97.10
2018-09-05T07:03:46.089Z,97.10
2018-09-05T07:06:14.360Z,97.10
2018-09-05T07:08:42.669Z,97.10
2018-09-05T07:11:10.948Z,97.10
2018-09-05T07:13:39.201Z,97.00
2018-09-05T07:16:07.493Z,97.00
2018-09-05T07:18:35.969Z,96.80
2018-09-05T07:21:07.056Z,96.80
2018-09-05T07:23:32.527Z,96.80
2018-09-05T07:26:00.931Z,96.70
2018-09-05T07:28:29.214Z,96.60
2018-09-05T07:30:57.565Z,96.60
2018-09-05T07:33:25.991Z,96.50
2018-09-05T07:35:54.362Z,96.40
2018-09-05T07:38:22.632Z,96.30
2018-09-05T07:40:50.905Z,96.20
2018-09-05T07:43:19.292Z,96.20
2018-09-05T07:45:47.577Z,96.10
2018-09-05T07:48:15.941Z,96.20
2018-09-05T07:50:44.267Z,96.10
2018-09-05T07:53:12.465Z,96.00
2018-09-05T07:58:15.389Z,95.90
2018-09-05T08:00:43.644Z,95.90
2018-09-05T08:03:11.955Z,95.80
2018-09-05T08:05:40.260Z,95.50
2018-09-05T08:08:08.533Z,95.40
2018-09-05T08:10:36.881Z,95.30
2018-09-05T08:13:05.262Z,95.50
2018-09-05T08:22:33.497Z,94.90
2018-09-05T08:25:01.756Z,94.70
2018-09-05T08:27:30.021Z,94.50
2018-09-05T08:29:58.338Z,94.50
2018-09-05T08:32:26.612Z,94.50
2018-09-05T08:34:55.032Z,94.30
2018-09-05T08:37:23.388Z,94.20
2018-09-05T08:39:51.594Z,94.20
2018-09-05T08:42:19.925Z,94.20
2018-09-05T08:44:48.524Z,94.10
2018-09-05T08:47:16.486Z,94.00
2018-09-05T08:49:44.746Z,93.90
2018-09-05T08:52:13.113Z,93.80
2018-09-05T08:54:41.380Z,93.80
2018-09-05T08:57:09.690Z,93.70
2018-09-05T08:59:37.953Z,93.50
2018-09-05T09:02:06.317Z,93.50
2018-09-05T09:04:34.609Z,93.30
2018-09-05T09:07:02.902Z,93.20
2018-09-05T09:09:31.134Z,93.00
2018-09-05T09:11:59.390Z,92.90
2018-09-05T09:14:27.667Z,92.90
2018-09-05T09:16:55.945Z,92.90
2018-09-05T09:19:24.241Z,92.90
2018-09-05T09:21:52.530Z,92.60
2018-09-05T09:24:20.822Z,92.30
2018-09-05T09:26:49.085Z,92.00
2018-09-05T09:29:17.365Z,91.80
2018-09-05T09:31:45.665Z,91.60
2018-09-05T09:34:14.050Z,91.40
2018-09-05T09:36:42.359Z,91.00
2018-09-05T09:39:11.477Z,90.60
2018-09-05T09:41:39.864Z,90.50
2018-09-05T09:44:08.177Z,90.40
2018-09-05T09:46:36.913Z,90.50
2018-09-05T09:49:05.130Z,90.20
2018-09-05T09:51:33.388Z,89.70
2018-09-05T09:54:01.682Z,89.20
2018-09-05T09:56:29.935Z,88.60
2018-09-05T09:58:58.247Z,88.10
2018-09-05T10:01:31.837Z,87.10
2018-09-05T10:04:05.454Z,86.50
2018-09-05T10:06:39.118Z,87.10
2018-09-05T10:09:13.530Z,86.00
2018-09-05T10:11:47.471Z,85.20
2018-09-05T10:14:21.193Z,85.40
2018-09-05T10:16:54.920Z,84.80
2018-09-05T10:19:23.213Z,83.40
2018-09-05T10:21:53.569Z,81.10
2018-09-05T10:24:21.857Z,79.30
2018-09-05T10:26:50.118Z,76.70
2018-09-05T10:29:18.409Z,75.20
2018-09-05T10:31:46.730Z,72.80
2018-09-05T10:34:14.911Z,70.20
2018-09-05T10:36:43.209Z,68.60
2018-09-05T10:39:11.692Z,67.10
2018-09-05T10:41:40.249Z,64.90
2018-09-05T10:44:09.058Z,63.70
2018-09-05T10:46:37.753Z,62.00
2018-09-05T10:49:06.073Z,61.10
2018-09-05T10:51:39.677Z,59.40
2018-09-05T10:54:08.135Z,57.50
2018-09-05T10:56:36.433Z,56.20
2018-09-05T10:59:04.747Z,56.20
2018-09-05T11:01:33.030Z,55.10
2018-09-05T11:04:01.351Z,53.50
2018-09-05T11:06:29.615Z,53.60
2018-09-05T11:08:57.857Z,52.30
2018-09-05T11:11:26.113Z,51.80
2018-09-05T11:13:54.564Z,51.80
2018-09-05T11:16:22.925Z,51.90
2018-09-05T11:18:51.305Z,50.90
2018-09-05T11:21:19.590Z,50.00
2018-09-05T11:23:47.773Z,49.60
2018-09-05T11:26:16.027Z,49.00
2018-09-05T11:28:44.317Z,48.90
2018-09-05T11:31:13.066Z,48.30
2018-09-05T11:33:41.370Z,47.50
2018-09-05T11:36:09.621Z,46.90
2018-09-05T11:38:37.954Z,45.90
2018-09-05T11:41:06.263Z,45.00
2018-09-05T11:43:34.512Z,44.70
2018-09-05T11:46:02.775Z,45.10
2018-09-05T11:48:31.254Z,45.60
2018-09-05T11:50:59.893Z,46.60
2018-09-05T11:53:28.363Z,47.60
2018-09-05T11:55:56.642Z,48.40
2018-09-05T11:58:24.881Z,48.90
2018-09-05T12:00:53.176Z,48.20
2018-09-05T12:03:21.421Z,47.40
2018-09-05T12:05:49.653Z,46.60
2018-09-05T12:08:17.905Z,45.70
2018-09-05T12:10:46.222Z,44.50
2018-09-05T12:13:14.449Z,44.00
2018-09-05T12:15:43.779Z,43.10
2018-09-05T12:18:11.889Z,42.60
2018-09-05T12:20:40.158Z,42.40
2018-09-05T12:23:08.473Z,41.90
2018-09-05T12:25:37.093Z,42.40
2018-09-05T12:28:05.364Z,42.70
2018-09-05T12:30:33.601Z,42.80
2018-09-05T12:33:01.878Z,42.90
2018-09-05T12:35:30.145Z,42.90
2018-09-05T12:37:58.405Z,43.00
2018-09-05T12:40:26.677Z,43.30
2018-09-05T12:42:54.942Z,43.60
2018-09-05T12:45:23.179Z,43.00
2018-09-05T12:47:51.433Z,42.20
2018-09-05T12:50:19.681Z,41.60
2018-09-05T12:52:47.957Z,41.60
2018-09-05T12:55:16.236Z,41.10
2018-09-05T12:57:44.518Z,41.40
2018-09-05T13:00:12.903Z,41.40
2018-09-05T13:02:41.165Z,41.80
2018-09-05T13:05:09.532Z,42.20
2018-09-05T13:07:37.773Z,42.50
2018-09-05T13:10:06.090Z,43.50
2018-09-05T13:12:34.444Z,44.00
2018-09-05T13:15:02.677Z,43.40
2018-09-05T13:17:30.973Z,42.60
2018-09-05T13:19:59.262Z,41.60
2018-09-05T13:22:27.549Z,41.60
2018-09-05T13:24:55.757Z,42.30
2018-09-05T13:27:24.121Z,42.90
2018-09-05T13:29:52.362Z,43.80
2018-09-05T13:32:20.613Z,43.90
2018-09-05T13:34:48.850Z,43.70
2018-09-05T13:37:17.150Z,43.60
2018-09-05T13:39:45.599Z,43.70
2018-09-05T13:42:13.808Z,43.50
2018-09-05T13:44:42.079Z,43.30
2018-09-05T13:47:10.523Z,44.00
2018-09-05T13:49:38.978Z,45.00
2018-09-05T13:52:07.337Z,45.40
2018-09-05T13:54:36.897Z,45.20
2018-09-05T13:57:05.213Z,45.00
2018-09-05T13:59:33.561Z,44.70
2018-09-05T14:02:01.847Z,44.30
2018-09-05T14:04:30.210Z,44.10
2018-09-05T14:06:58.519Z,44.20
2018-09-05T14:09:26.808Z,44.20
2018-09-05T14:11:55.065Z,44.10
2018-09-05T14:14:27.105Z,44.50
2018-09-05T14:16:55.505Z,45.50
2018-09-05T14:19:30.327Z,46.30
2018-09-05T14:21:58.598Z,46.80
2018-09-05T14:24:26.906Z,46.60
2018-09-05T14:26:55.153Z,46.60
2018-09-05T14:29:23.574Z,46.90
2018-09-05T14:31:51.913Z,47.10
2018-09-05T14:34:20.190Z,47.70
2018-09-05T14:36:48.429Z,48.40
2018-09-05T14:39:16.698Z,49.00
2018-09-05T14:41:45.133Z,49.30
2018-09-05T14:44:15.186Z,49.40
2018-09-05T14:46:43.499Z,49.60
2018-09-05T14:49:11.821Z,49.50
2018-09-05T14:51:40.061Z,49.50
2018-09-05T14:54:08.353Z,50.00
2018-09-05T14:56:36.614Z,50.70
2018-09-05T14:59:04.879Z,51.20
2018-09-05T15:01:33.177Z,51.10
2018-09-05T15:04:01.533Z,51.20
2018-09-05T15:06:29.823Z,51.30
2018-09-05T15:08:58.021Z,51.30
2018-09-05T15:11:26.274Z,51.20
2018-09-05T15:13:54.580Z,51.30
2018-09-05T15:16:22.951Z,51.80
2018-09-05T15:18:51.318Z,52.40
2018-09-05T15:21:19.624Z,52.60
2018-09-05T15:23:47.961Z,52.50
2018-09-05T15:26:16.277Z,52.60
2018-09-05T15:28:44.632Z,52.70
2018-09-05T15:31:12.923Z,52.70
2018-09-05T15:33:41.212Z,52.70
2018-09-05T15:36:09.489Z,52.80
2018-09-05T15:38:37.781Z,52.70
2018-09-05T15:41:06.146Z,52.90
2018-09-05T15:43:34.401Z,52.80
2018-09-05T15:46:02.707Z,53.10
2018-09-05T15:48:30.964Z,53.30
2018-09-05T15:50:59.410Z,53.50
2018-09-05T15:53:27.797Z,53.00
2018-09-05T15:55:56.033Z,53.00
2018-09-05T15:58:24.540Z,53.20
2018-09-05T16:00:52.869Z,53.70
2018-09-05T16:03:21.134Z,53.70
2018-09-05T16:05:49.384Z,52.90
2018-09-05T16:08:17.660Z,52.80
2018-09-05T16:10:45.881Z,53.40
2018-09-05T16:13:14.286Z,53.50
2018-09-05T16:15:42.704Z,53.70
2018-09-05T16:18:10.831Z,55.70
2018-09-05T16:20:39.689Z,56.80
2018-09-05T16:23:07.985Z,57.80
2018-09-05T16:25:36.252Z,58.60
2018-09-05T16:28:04.637Z,59.10
2018-09-05T16:30:33.021Z,59.90
2018-09-05T16:33:01.274Z,60.20
2018-09-05T16:35:29.650Z,60.60
2018-09-05T16:37:57.938Z,61.10
2018-09-05T16:40:26.405Z,61.50
2018-09-05T16:42:54.677Z,62.00
2018-09-05T16:45:22.960Z,62.30
2018-09-05T16:47:51.235Z,62.80
2018-09-05T16:50:19.526Z,63.00
2018-09-05T16:52:47.787Z,63.60
2018-09-05T16:55:16.197Z,64.10
2018-09-05T16:57:44.468Z,64.30
2018-09-05T17:00:12.743Z,64.60
2018-09-05T17:02:40.987Z,65.00
2018-09-05T17:05:09.264Z,65.10
2018-09-05T17:07:37.556Z,65.60
2018-09-05T17:10:05.840Z,65.60
2018-09-05T17:12:34.202Z,66.00
2018-09-05T17:15:02.470Z,66.10
2018-09-05T17:17:30.749Z,66.40
2018-09-05T17:19:59.042Z,66.80
2018-09-05T17:22:27.249Z,67.10
2018-09-05T17:24:55.471Z,67.30
2018-09-05T17:27:23.697Z,67.50
2018-09-05T17:29:52.130Z,67.70
2018-09-05T17:32:20.358Z,68.00
2018-09-05T17:34:48.577Z,68.30
2018-09-05T17:37:16.810Z,68.40
2018-09-05T17:39:45.057Z,68.70
2018-09-05T17:42:13.341Z,69.00
2018-09-05T17:44:41.641Z,69.10
2018-09-05T17:47:09.916Z,69.10
2018-09-05T17:49:38.198Z,69.10
2018-09-05T17:52:06.539Z,69.90
2018-09-05T17:54:34.822Z,69.30
2018-09-05T17:57:03.157Z,69.50
2018-09-05T17:59:31.383Z,69.60
2018-09-05T18:01:59.709Z,69.80
2018-09-05T18:04:27.925Z,69.90
2018-09-05T18:06:56.185Z,70.00
2018-09-05T18:09:24.443Z,70.10
2018-09-05T18:11:52.814Z,70.50
2018-09-05T18:14:21.056Z,70.40
2018-09-05T18:16:49.513Z,70.40
2018-09-05T18:19:17.751Z,70.30
2018-09-05T18:21:46.013Z,70.30
2018-09-05T18:24:14.253Z,70.50
2018-09-05T18:26:42.463Z,70.70
2018-09-05T18:29:10.785Z,71.20
2018-09-05T18:31:38.992Z,71.00
2018-09-05T18:34:07.503Z,71.30
2018-09-05T18:36:35.809Z,71.40
2018-09-05T18:39:05.542Z,71.50
2018-09-05T18:41:33.783Z,71.70
2018-09-05T18:44:02.021Z,71.80
2018-09-05T18:46:30.293Z,72.10
2018-09-05T18:48:58.568Z,72.20
2018-09-05T18:51:26.837Z,72.40
2018-09-05T18:53:55.079Z,72.70
2018-09-05T18:56:23.378Z,72.70
2018-09-05T18:58:51.642Z,73.00
2018-09-05T19:01:20.013Z,73.40
2018-09-05T19:03:48.305Z,73.60
2018-09-05T19:06:16.670Z,73.90
2018-09-05T19:08:44.945Z,74.10
2018-09-05T19:11:13.345Z,74.20
2018-09-05T19:13:41.829Z,74.50
2018-09-05T19:16:10.053Z,74.70
2018-09-05T19:18:38.339Z,74.90
2018-09-05T19:21:06.610Z,75.20
2018-09-05T19:23:37.780Z,75.40
2018-09-05T19:26:06.264Z,75.50
2018-09-05T19:28:34.729Z,76.00
2018-09-05T19:31:02.999Z,76.10
2018-09-05T19:33:31.443Z,76.30
2018-09-05T19:35:59.701Z,76.50
2018-09-05T19:38:28.019Z,76.90
2018-09-05T19:40:56.645Z,77.10
2018-09-05T19:43:24.893Z,77.50
2018-09-05T19:45:55.270Z,77.80
2018-09-05T19:48:23.514Z,78.10
2018-09-05T19:50:51.865Z,78.30
2018-09-05T19:53:20.096Z,78.60
2018-09-05T19:55:48.363Z,78.80
2018-09-05T19:58:16.657Z,79.10
2018-09-05T20:00:44.941Z,79.40
2018-09-05T20:03:13.291Z,79.80
2018-09-05T20:05:41.651Z,79.90
2018-09-05T20:08:09.924Z,80.30
2018-09-05T20:10:38.228Z,80.70
2018-09-05T20:13:07.134Z,81.00
2018-09-05T20:15:35.512Z,81.40
2018-09-05T20:18:03.836Z,81.70
2018-09-05T20:20:32.284Z,82.10
2018-09-05T20:23:00.545Z,82.40
2018-09-05T20:25:28.826Z,83.00
2018-09-05T20:27:57.121Z,83.70
2018-09-05T20:30:25.548Z,83.90
2018-09-05T20:32:53.884Z,84.00
2018-09-05T20:35:22.181Z,84.20
2018-09-05T20:37:50.429Z,84.50
2018-09-05T20:40:18.840Z,84.70
2018-09-05T20:42:47.594Z,85.00
2018-09-05T20:45:16.047Z,85.20
2018-09-05T20:47:44.682Z,85.50
2018-09-05T20:50:13.778Z,85.60
2018-09-05T20:52:42.050Z,85.80
2018-09-05T20:55:10.432Z,85.90
2018-09-05T20:57:38.747Z,86.20
2018-09-05T21:00:09.659Z,87.10
2018-09-05T21:02:38.038Z,86.80
2018-09-05T21:05:06.394Z,86.70
2018-09-05T21:07:34.724Z,86.90
2018-09-05T21:10:03.000Z,87.30
2018-09-05T21:12:31.464Z,87.50
2018-09-05T21:14:59.748Z,87.80
2018-09-05T21:17:28.035Z,87.90
2018-09-05T21:19:56.281Z,88.30
2018-09-05T21:22:24.680Z,88.40
2018-09-05T21:24:52.957Z,88.60
2018-09-05T21:27:21.247Z,88.70
2018-09-05T21:29:49.696Z,89.00
2018-09-05T21:32:18.009Z,89.20
2018-09-05T21:34:46.489Z,89.40
2018-09-05T21:37:14.755Z,89.50
2018-09-05T21:39:43.372Z,89.60
2018-09-05T21:42:11.649Z,89.70
2018-09-05T21:44:40.328Z,90.00
2018-09-05T21:47:08.636Z,90.10
2018-09-05T21:49:36.998Z,90.10
2018-09-05T21:52:05.416Z,90.20
2018-09-05T21:54:34.261Z,90.30
2018-09-05T21:57:02.533Z,90.30
2018-09-05T21:59:30.813Z,90.40
2018-09-05T22:01:59.081Z,90.50
2018-09-05T22:04:27.364Z,90.50
2018-09-05T22:06:55.685Z,90.60
2018-09-05T22:09:24.061Z,90.60
2018-09-05T22:11:52.328Z,90.70
2018-09-05T22:14:20.586Z,90.80
2018-09-05T22:16:48.817Z,90.80
2018-09-05T22:19:17.144Z,90.90
2018-09-05T22:21:45.524Z,90.90
2018-09-05T22:24:13.912Z,91.00
2018-09-05T22:26:42.144Z,91.00
2018-09-05T22:29:10.465Z,91.10
2018-09-05T22:31:38.833Z,91.20
2018-09-05T22:34:07.187Z,91.20
2018-09-05T22:36:35.545Z,91.20
2018-09-05T22:39:04.702Z,91.20
2018-09-05T22:41:32.978Z,91.30
2018-09-05T22:44:12.547Z,91.40
2018-09-05T22:46:52.213Z,91.40
2018-09-05T22:50:09.490Z,91.40
2018-09-05T22:53:24.462Z,91.50
2018-09-05T22:58:19.631Z,91.40
2018-09-05T23:03:00.846Z,91.40
2018-09-05T23:07:53.143Z,91.20
2018-09-05T23:10:32.770Z,91.00
2018-09-05T23:13:12.326Z,91.00
2018-09-05T23:15:51.800Z,91.20
2018-09-05T23:18:43.110Z,91.30
2018-09-05T23:21:22.108Z,91.50
2018-09-05T23:23:58.641Z,91.50
2018-09-05T23:26:27.060Z,91.60
2018-09-05T23:28:55.391Z,91.70
2018-09-05T23:31:24.088Z,91.80
2018-09-05T23:33:52.602Z,91.90
2018-09-05T23:36:21.843Z,91.90
2018-09-05T23:38:50.196Z,92.00
2018-09-05T23:41:18.527Z,92.00
2018-09-05T23:43:46.796Z,92.30
2018-09-05T23:46:15.042Z,92.00
2018-09-05T23:48:43.285Z,92.00
2018-09-05T23:51:11.590Z,92.10
2018-09-05T23:53:40.010Z,92.10
2018-09-05T23:56:08.258Z,92.20
2018-09-05T23:58:36.559Z,92.20
